sensor_id;sensor_type;location;lat;lon;timestamp;P1;durP1;ratioP1;P2;durP2;ratioP2
79412;SDS011;68863;49.528;11.010;2023-07-24T00:00:18;7.78;;;2.80;;
79412;SDS011;68863;49.528;11.010;2023-07-24T00:01:18;7.95;;;3.08;;
79412;SDS011;68863;49.528;11.010;2023-07-24T00:02:19;7.20;;;2.92;;
79412;SDS011;68863;49.528;11.010;2023-07-24T00:03:19;9.20;;;3.33;;
79412;SDS011;68863;49.528;11.010;2023-07-24T00:04:19;7.30;;;2.72;;
79412;SDS011;68863;49.528;11.010;2023-07-24T00:05:19;7.00;;;2.85;;
79412;SDS011;68863;49.528;11.010;2023-07-24T00:06:20;7.27;;;3.13;;
79412;SDS011;68863;49.528;11.010;2023-07-24T00:07:20;7.75;;;3.03;;
79412;SDS011;68863;49.528;11.010;2023-07-24T00:08:20;8.50;;;3.08;;
79412;SDS011;68863;49.528;11.010;2023-07-24T00:09:21;8.20;;;2.93;;
79412;SDS011;68863;49.528;11.010;2023-07-24T00:10:24;7.87;;;3.07;;
79412;SDS011;68863;49.528;11.010;2023-07-24T00:11:24;7.82;;;3.05;;
79412;SDS011;68863;49.528;11.010;2023-07-24T00:12:24;7.68;;;2.97;;
79412;SDS011;68863;49.528;11.010;2023-07-24T00:13:25;8.38;;;3.03;;
79412;SDS011;68863;49.528;11.010;2023-07-24T00:14:25;8.20;;;2.88;;
79412;SDS011;68863;49.528;11.010;2023-07-24T00:15:25;7.82;;;3.10;;
79412;SDS011;68863;49.528;11.010;2023-07-24T00:16:26;9.20;;;2.80;;
79412;SDS011;68863;49.528;11.010;2023-07-24T00:17:26;8.27;;;2.90;;
79412;SDS011;68863;49.528;11.010;2023-07-24T00:18:26;9.70;;;3.28;;
79412;SDS011;68863;49.528;11.010;2023-07-24T00:19:27;7.43;;;2.78;;
79412;SDS011;68863;49.528;11.010;2023-07-24T00:20:27;7.35;;;2.92;;
79412;SDS011;68863;49.528;11.010;2023-07-24T00:21:27;8.10;;;3.13;;
79412;SDS011;68863;49.528;11.010;2023-07-24T00:22:28;8.70;;;3.20;;
79412;SDS011;68863;49.528;11.010;2023-07-24T00:23:28;9.02;;;3.03;;
79412;SDS011;68863;49.528;11.010;2023-07-24T00:24:29;9.98;;;3.05;;
79412;SDS011;68863;49.528;11.010;2023-07-24T00:25:30;8.25;;;3.05;;
79412;SDS011;68863;49.528;11.010;2023-07-24T00:26:30;8.27;;;3.03;;
79412;SDS011;68863;49.528;11.010;2023-07-24T00:27:30;7.38;;;2.63;;
79412;SDS011;68863;49.528;11.010;2023-07-24T00:28:30;8.20;;;3.20;;
79412;SDS011;68863;49.528;11.010;2023-07-24T00:29:31;7.80;;;2.88;;
79412;SDS011;68863;49.528;11.010;2023-07-24T00:30:31;8.52;;;3.08;;
79412;SDS011;68863;49.528;11.010;2023-07-24T00:31:31;7.50;;;2.67;;
79412;SDS011;68863;49.528;11.010;2023-07-24T00:32:32;7.45;;;3.10;;
79412;SDS011;68863;49.528;11.010;2023-07-24T00:33:32;8.40;;;3.03;;
79412;SDS011;68863;49.528;11.010;2023-07-24T00:34:32;7.43;;;2.70;;
79412;SDS011;68863;49.528;11.010;2023-07-24T00:35:32;7.70;;;2.88;;
79412;SDS011;68863;49.528;11.010;2023-07-24T00:36:33;8.47;;;3.03;;
79412;SDS011;68863;49.528;11.010;2023-07-24T00:37:33;7.55;;;3.10;;
79412;SDS011;68863;49.528;11.010;2023-07-24T00:38:33;7.47;;;2.97;;
79412;SDS011;68863;49.528;11.010;2023-07-24T00:39:34;7.53;;;2.55;;
79412;SDS011;68863;49.528;11.010;2023-07-24T00:40:34;8.43;;;2.83;;
79412;SDS011;68863;49.528;11.010;2023-07-24T00:41:34;7.45;;;2.92;;
79412;SDS011;68863;49.528;11.010;2023-07-24T00:42:35;8.80;;;3.35;;
79412;SDS011;68863;49.528;11.010;2023-07-24T00:43:35;7.50;;;2.75;;
79412;SDS011;68863;49.528;11.010;2023-07-24T00:44:35;8.02;;;2.78;;
79412;SDS011;68863;49.528;11.010;2023-07-24T00:45:36;6.78;;;2.55;;
79412;SDS011;68863;49.528;11.010;2023-07-24T00:46:36;8.05;;;3.30;;
79412;SDS011;68863;49.528;11.010;2023-07-24T00:47:37;7.82;;;3.33;;
79412;SDS011;68863;49.528;11.010;2023-07-24T00:48:38;9.15;;;3.58;;
79412;SDS011;68863;49.528;11.010;2023-07-24T00:49:39;8.98;;;3.70;;
79412;SDS011;68863;49.528;11.010;2023-07-24T00:50:39;8.50;;;2.85;;
79412;SDS011;68863;49.528;11.010;2023-07-24T00:52:42;8.15;;;2.95;;
79412;SDS011;68863;49.528;11.010;2023-07-24T00:53:43;8.57;;;3.15;;
79412;SDS011;68863;49.528;11.010;2023-07-24T00:54:43;6.93;;;2.85;;
79412;SDS011;68863;49.528;11.010;2023-07-24T00:55:45;9.35;;;3.42;;
79412;SDS011;68863;49.528;11.010;2023-07-24T00:56:46;9.73;;;3.33;;
79412;SDS011;68863;49.528;11.010;2023-07-24T00:57:47;8.27;;;3.33;;
79412;SDS011;68863;49.528;11.010;2023-07-24T00:58:47;8.40;;;3.10;;
79412;SDS011;68863;49.528;11.010;2023-07-24T00:59:47;8.65;;;3.17;;
79412;SDS011;68863;49.528;11.010;2023-07-24T01:00:48;8.48;;;3.08;;
79412;SDS011;68863;49.528;11.010;2023-07-24T01:01:49;8.30;;;2.55;;
79412;SDS011;68863;49.528;11.010;2023-07-24T01:02:50;7.95;;;2.65;;
79412;SDS011;68863;49.528;11.010;2023-07-24T01:03:52;11.48;;;3.80;;
79412;SDS011;68863;49.528;11.010;2023-07-24T01:04:52;9.57;;;3.42;;
79412;SDS011;68863;49.528;11.010;2023-07-24T01:05:52;8.50;;;3.30;;
79412;SDS011;68863;49.528;11.010;2023-07-24T01:06:54;9.15;;;2.92;;
79412;SDS011;68863;49.528;11.010;2023-07-24T01:07:55;9.05;;;3.78;;
79412;SDS011;68863;49.528;11.010;2023-07-24T01:08:56;8.15;;;2.97;;
79412;SDS011;68863;49.528;11.010;2023-07-24T01:09:56;7.90;;;2.70;;
79412;SDS011;68863;49.528;11.010;2023-07-24T01:10:57;8.88;;;2.80;;
79412;SDS011;68863;49.528;11.010;2023-07-24T01:13:40;9.00;;;3.05;;
79412;SDS011;68863;49.528;11.010;2023-07-24T01:14:49;9.55;;;3.33;;
79412;SDS011;68863;49.528;11.010;2023-07-24T01:16:03;8.40;;;3.00;;
79412;SDS011;68863;49.528;11.010;2023-07-24T01:17:09;9.75;;;3.15;;
79412;SDS011;68863;49.528;11.010;2023-07-24T01:18:14;9.20;;;3.30;;
79412;SDS011;68863;49.528;11.010;2023-07-24T01:19:22;8.57;;;2.92;;
79412;SDS011;68863;49.528;11.010;2023-07-24T01:20:26;8.73;;;3.20;;
79412;SDS011;68863;49.528;11.010;2023-07-24T01:21:38;8.85;;;3.15;;
79412;SDS011;68863;49.528;11.010;2023-07-24T01:22:51;7.40;;;3.22;;
79412;SDS011;68863;49.528;11.010;2023-07-24T01:25:58;7.40;;;3.13;;
79412;SDS011;68863;49.528;11.010;2023-07-24T01:26:59;8.55;;;3.42;;
79412;SDS011;68863;49.528;11.010;2023-07-24T01:28:00;7.07;;;2.78;;
79412;SDS011;68863;49.528;11.010;2023-07-24T01:29:00;8.55;;;2.55;;
79412;SDS011;68863;49.528;11.010;2023-07-24T01:30:00;11.33;;;3.43;;
79412;SDS011;68863;49.528;11.010;2023-07-24T01:31:01;9.32;;;3.05;;
79412;SDS011;68863;49.528;11.010;2023-07-24T01:32:01;7.88;;;3.15;;
79412;SDS011;68863;49.528;11.010;2023-07-24T01:33:01;10.30;;;3.60;;
79412;SDS011;68863;49.528;11.010;2023-07-24T01:34:02;9.93;;;3.17;;
79412;SDS011;68863;49.528;11.010;2023-07-24T01:35:03;9.13;;;3.13;;
79412;SDS011;68863;49.528;11.010;2023-07-24T01:36:04;8.60;;;2.97;;
79412;SDS011;68863;49.528;11.010;2023-07-24T01:37:06;9.48;;;3.67;;
79412;SDS011;68863;49.528;11.010;2023-07-24T01:38:06;8.65;;;3.13;;
79412;SDS011;68863;49.528;11.010;2023-07-24T01:39:09;8.15;;;2.80;;
79412;SDS011;68863;49.528;11.010;2023-07-24T01:40:10;8.10;;;2.72;;
79412;SDS011;68863;49.528;11.010;2023-07-24T01:41:12;10.20;;;3.75;;
79412;SDS011;68863;49.528;11.010;2023-07-24T01:42:12;8.65;;;3.22;;
79412;SDS011;68863;49.528;11.010;2023-07-24T01:43:13;8.18;;;3.40;;
79412;SDS011;68863;49.528;11.010;2023-07-24T01:44:14;8.48;;;3.55;;
79412;SDS011;68863;49.528;11.010;2023-07-24T01:45:14;8.45;;;2.95;;
79412;SDS011;68863;49.528;11.010;2023-07-24T01:46:15;7.50;;;3.55;;
79412;SDS011;68863;49.528;11.010;2023-07-24T01:47:15;8.45;;;3.10;;
79412;SDS011;68863;49.528;11.010;2023-07-24T01:48:18;8.48;;;2.88;;
79412;SDS011;68863;49.528;11.010;2023-07-24T01:49:18;8.93;;;3.03;;
79412;SDS011;68863;49.528;11.010;2023-07-24T01:50:19;8.32;;;3.00;;
79412;SDS011;68863;49.528;11.010;2023-07-24T01:51:19;7.45;;;3.15;;
79412;SDS011;68863;49.528;11.010;2023-07-24T01:52:19;7.90;;;3.05;;
79412;SDS011;68863;49.528;11.010;2023-07-24T01:53:20;9.18;;;3.55;;
79412;SDS011;68863;49.528;11.010;2023-07-24T01:54:20;7.90;;;3.13;;
79412;SDS011;68863;49.528;11.010;2023-07-24T01:55:20;8.40;;;2.92;;
79412;SDS011;68863;49.528;11.010;2023-07-24T01:56:21;7.90;;;3.80;;
79412;SDS011;68863;49.528;11.010;2023-07-24T01:57:21;8.40;;;3.53;;
79412;SDS011;68863;49.528;11.010;2023-07-24T01:58:21;8.63;;;3.45;;
79412;SDS011;68863;49.528;11.010;2023-07-24T01:59:21;7.45;;;2.72;;
79412;SDS011;68863;49.528;11.010;2023-07-24T02:00:22;8.65;;;3.33;;
79412;SDS011;68863;49.528;11.010;2023-07-24T02:01:22;8.10;;;3.17;;
79412;SDS011;68863;49.528;11.010;2023-07-24T02:02:22;8.13;;;3.40;;
79412;SDS011;68863;49.528;11.010;2023-07-24T02:03:22;7.40;;;3.28;;
79412;SDS011;68863;49.528;11.010;2023-07-24T02:04:23;8.05;;;3.03;;
79412;SDS011;68863;49.528;11.010;2023-07-24T02:05:23;7.93;;;3.28;;
79412;SDS011;68863;49.528;11.010;2023-07-24T02:06:24;8.23;;;3.00;;
79412;SDS011;68863;49.528;11.010;2023-07-24T02:07:24;8.97;;;3.53;;
79412;SDS011;68863;49.528;11.010;2023-07-24T02:08:24;9.70;;;3.47;;
79412;SDS011;68863;49.528;11.010;2023-07-24T02:09:24;8.65;;;3.50;;
79412;SDS011;68863;49.528;11.010;2023-07-24T02:10:25;10.63;;;4.25;;
79412;SDS011;68863;49.528;11.010;2023-07-24T02:11:25;9.13;;;3.35;;
79412;SDS011;68863;49.528;11.010;2023-07-24T02:12:25;9.07;;;3.45;;
79412;SDS011;68863;49.528;11.010;2023-07-24T02:13:26;7.78;;;3.08;;
79412;SDS011;68863;49.528;11.010;2023-07-24T02:14:26;8.52;;;3.30;;
79412;SDS011;68863;49.528;11.010;2023-07-24T02:15:26;7.82;;;3.15;;
79412;SDS011;68863;49.528;11.010;2023-07-24T02:16:27;8.60;;;3.60;;
79412;SDS011;68863;49.528;11.010;2023-07-24T02:17:27;8.87;;;3.83;;
79412;SDS011;68863;49.528;11.010;2023-07-24T02:18:27;8.18;;;3.33;;
79412;SDS011;68863;49.528;11.010;2023-07-24T02:19:27;7.93;;;3.38;;
79412;SDS011;68863;49.528;11.010;2023-07-24T02:20:28;7.88;;;3.38;;
79412;SDS011;68863;49.528;11.010;2023-07-24T02:21:28;8.13;;;3.05;;
79412;SDS011;68863;49.528;11.010;2023-07-24T02:22:28;8.73;;;3.22;;
79412;SDS011;68863;49.528;11.010;2023-07-24T02:23:29;9.38;;;3.15;;
79412;SDS011;68863;49.528;11.010;2023-07-24T02:24:29;8.32;;;3.10;;
79412;SDS011;68863;49.528;11.010;2023-07-24T02:25:29;9.40;;;3.03;;
79412;SDS011;68863;49.528;11.010;2023-07-24T02:26:30;7.35;;;3.05;;
79412;SDS011;68863;49.528;11.010;2023-07-24T02:27:30;8.13;;;3.20;;
79412;SDS011;68863;49.528;11.010;2023-07-24T02:28:34;9.05;;;3.63;;
79412;SDS011;68863;49.528;11.010;2023-07-24T02:29:34;8.43;;;3.35;;
79412;SDS011;68863;49.528;11.010;2023-07-24T02:30:53;8.48;;;3.20;;
79412;SDS011;68863;49.528;11.010;2023-07-24T02:31:57;7.85;;;3.20;;
79412;SDS011;68863;49.528;11.010;2023-07-24T02:32:58;9.02;;;3.42;;
79412;SDS011;68863;49.528;11.010;2023-07-24T02:33:58;8.57;;;3.30;;
79412;SDS011;68863;49.528;11.010;2023-07-24T02:34:59;7.47;;;3.22;;
79412;SDS011;68863;49.528;11.010;2023-07-24T02:36:00;8.25;;;3.15;;
79412;SDS011;68863;49.528;11.010;2023-07-24T02:37:00;9.88;;;3.88;;
79412;SDS011;68863;49.528;11.010;2023-07-24T02:38:01;7.40;;;3.20;;
79412;SDS011;68863;49.528;11.010;2023-07-24T02:39:01;8.13;;;3.13;;
79412;SDS011;68863;49.528;11.010;2023-07-24T02:40:01;10.20;;;3.63;;
79412;SDS011;68863;49.528;11.010;2023-07-24T02:41:02;8.02;;;3.28;;
79412;SDS011;68863;49.528;11.010;2023-07-24T02:42:02;9.87;;;3.90;;
79412;SDS011;68863;49.528;11.010;2023-07-24T02:43:03;7.82;;;3.42;;
79412;SDS011;68863;49.528;11.010;2023-07-24T02:44:03;8.98;;;3.92;;
79412;SDS011;68863;49.528;11.010;2023-07-24T02:45:04;8.90;;;3.38;;
79412;SDS011;68863;49.528;11.010;2023-07-24T02:46:05;9.52;;;4.03;;
79412;SDS011;68863;49.528;11.010;2023-07-24T02:47:05;9.13;;;3.40;;
79412;SDS011;68863;49.528;11.010;2023-07-24T02:48:06;10.23;;;3.45;;
79412;SDS011;68863;49.528;11.010;2023-07-24T02:49:06;8.48;;;3.13;;
79412;SDS011;68863;49.528;11.010;2023-07-24T02:50:07;9.52;;;3.45;;
79412;SDS011;68863;49.528;11.010;2023-07-24T02:51:07;8.07;;;3.30;;
79412;SDS011;68863;49.528;11.010;2023-07-24T02:52:08;9.05;;;3.25;;
79412;SDS011;68863;49.528;11.010;2023-07-24T02:53:08;8.40;;;3.60;;
79412;SDS011;68863;49.528;11.010;2023-07-24T02:54:09;10.52;;;3.72;;
79412;SDS011;68863;49.528;11.010;2023-07-24T02:55:09;9.23;;;3.92;;
79412;SDS011;68863;49.528;11.010;2023-07-24T02:56:09;8.82;;;3.75;;
79412;SDS011;68863;49.528;11.010;2023-07-24T02:57:09;10.63;;;3.80;;
79412;SDS011;68863;49.528;11.010;2023-07-24T02:58:13;10.15;;;3.60;;
79412;SDS011;68863;49.528;11.010;2023-07-24T02:59:13;9.82;;;4.22;;
79412;SDS011;68863;49.528;11.010;2023-07-24T03:00:14;10.98;;;4.18;;
79412;SDS011;68863;49.528;11.010;2023-07-24T03:01:14;9.18;;;3.50;;
79412;SDS011;68863;49.528;11.010;2023-07-24T03:02:15;9.15;;;4.38;;
79412;SDS011;68863;49.528;11.010;2023-07-24T03:03:15;9.53;;;3.50;;
79412;SDS011;68863;49.528;11.010;2023-07-24T03:04:15;10.45;;;4.05;;
79412;SDS011;68863;49.528;11.010;2023-07-24T03:05:15;8.95;;;3.63;;
79412;SDS011;68863;49.528;11.010;2023-07-24T03:06:16;8.23;;;3.78;;
79412;SDS011;68863;49.528;11.010;2023-07-24T03:07:16;10.37;;;3.73;;
79412;SDS011;68863;49.528;11.010;2023-07-24T03:08:16;10.32;;;4.00;;
79412;SDS011;68863;49.528;11.010;2023-07-24T03:09:16;8.38;;;3.25;;
79412;SDS011;68863;49.528;11.010;2023-07-24T03:10:17;8.98;;;3.63;;
79412;SDS011;68863;49.528;11.010;2023-07-24T03:11:17;9.93;;;4.10;;
79412;SDS011;68863;49.528;11.010;2023-07-24T03:12:18;9.93;;;4.25;;
79412;SDS011;68863;49.528;11.010;2023-07-24T03:13:18;7.80;;;3.33;;
79412;SDS011;68863;49.528;11.010;2023-07-24T03:14:18;10.63;;;3.80;;
79412;SDS011;68863;49.528;11.010;2023-07-24T03:15:18;9.70;;;4.10;;
79412;SDS011;68863;49.528;11.010;2023-07-24T03:16:19;8.85;;;4.15;;
79412;SDS011;68863;49.528;11.010;2023-07-24T03:17:21;9.93;;;4.05;;
79412;SDS011;68863;49.528;11.010;2023-07-24T03:18:22;9.25;;;4.43;;
79412;SDS011;68863;49.528;11.010;2023-07-24T03:19:23;9.10;;;4.15;;
79412;SDS011;68863;49.528;11.010;2023-07-24T03:20:23;8.63;;;3.53;;
79412;SDS011;68863;49.528;11.010;2023-07-24T03:21:24;9.75;;;4.75;;
79412;SDS011;68863;49.528;11.010;2023-07-24T03:22:24;11.23;;;3.42;;
79412;SDS011;68863;49.528;11.010;2023-07-24T03:23:24;7.80;;;3.38;;
79412;SDS011;68863;49.528;11.010;2023-07-24T03:24:24;8.95;;;3.90;;
79412;SDS011;68863;49.528;11.010;2023-07-24T03:25:25;10.68;;;3.85;;
79412;SDS011;68863;49.528;11.010;2023-07-24T03:26:25;9.13;;;3.95;;
79412;SDS011;68863;49.528;11.010;2023-07-24T03:27:25;8.73;;;3.40;;
79412;SDS011;68863;49.528;11.010;2023-07-24T03:28:25;8.27;;;3.10;;
79412;SDS011;68863;49.528;11.010;2023-07-24T03:29:27;8.38;;;3.50;;
79412;SDS011;68863;49.528;11.010;2023-07-24T03:30:27;10.10;;;4.22;;
79412;SDS011;68863;49.528;11.010;2023-07-24T03:31:28;9.98;;;4.18;;
79412;SDS011;68863;49.528;11.010;2023-07-24T03:32:28;10.23;;;3.97;;
79412;SDS011;68863;49.528;11.010;2023-07-24T03:33:28;9.50;;;3.37;;
79412;SDS011;68863;49.528;11.010;2023-07-24T03:34:28;8.87;;;3.77;;
79412;SDS011;68863;49.528;11.010;2023-07-24T03:35:29;9.13;;;3.75;;
79412;SDS011;68863;49.528;11.010;2023-07-24T03:36:29;9.05;;;4.03;;
79412;SDS011;68863;49.528;11.010;2023-07-24T03:37:30;8.98;;;4.20;;
79412;SDS011;68863;49.528;11.010;2023-07-24T03:38:31;9.65;;;3.13;;
79412;SDS011;68863;49.528;11.010;2023-07-24T03:39:31;9.70;;;4.07;;
79412;SDS011;68863;49.528;11.010;2023-07-24T03:40:31;8.93;;;3.40;;
79412;SDS011;68863;49.528;11.010;2023-07-24T03:41:32;9.20;;;3.65;;
79412;SDS011;68863;49.528;11.010;2023-07-24T03:42:32;10.40;;;3.90;;
79412;SDS011;68863;49.528;11.010;2023-07-24T03:43:32;9.63;;;4.05;;
79412;SDS011;68863;49.528;11.010;2023-07-24T03:44:33;8.88;;;3.75;;
79412;SDS011;68863;49.528;11.010;2023-07-24T03:45:33;9.02;;;4.22;;
79412;SDS011;68863;49.528;11.010;2023-07-24T03:46:33;10.93;;;4.07;;
79412;SDS011;68863;49.528;11.010;2023-07-24T03:47:34;8.77;;;4.43;;
79412;SDS011;68863;49.528;11.010;2023-07-24T03:48:34;8.98;;;3.58;;
79412;SDS011;68863;49.528;11.010;2023-07-24T03:49:36;10.98;;;4.25;;
79412;SDS011;68863;49.528;11.010;2023-07-24T03:50:36;10.50;;;4.07;;
79412;SDS011;68863;49.528;11.010;2023-07-24T03:51:37;9.90;;;3.97;;
79412;SDS011;68863;49.528;11.010;2023-07-24T03:52:37;11.40;;;4.23;;
79412;SDS011;68863;49.528;11.010;2023-07-24T03:53:37;8.50;;;3.55;;
79412;SDS011;68863;49.528;11.010;2023-07-24T03:54:37;10.57;;;4.10;;
79412;SDS011;68863;49.528;11.010;2023-07-24T03:55:38;10.90;;;4.60;;
79412;SDS011;68863;49.528;11.010;2023-07-24T03:56:38;9.43;;;3.75;;
79412;SDS011;68863;49.528;11.010;2023-07-24T03:57:38;11.07;;;3.80;;
79412;SDS011;68863;49.528;11.010;2023-07-24T03:58:38;10.63;;;4.30;;
79412;SDS011;68863;49.528;11.010;2023-07-24T03:59:39;10.00;;;4.50;;
79412;SDS011;68863;49.528;11.010;2023-07-24T04:00:39;9.48;;;4.63;;
79412;SDS011;68863;49.528;11.010;2023-07-24T04:01:40;11.07;;;3.92;;
79412;SDS011;68863;49.528;11.010;2023-07-24T04:02:40;10.77;;;4.50;;
79412;SDS011;68863;49.528;11.010;2023-07-24T04:03:41;9.50;;;4.35;;
79412;SDS011;68863;49.528;11.010;2023-07-24T04:04:41;9.80;;;4.00;;
79412;SDS011;68863;49.528;11.010;2023-07-24T04:05:41;12.15;;;4.60;;
79412;SDS011;68863;49.528;11.010;2023-07-24T04:06:41;9.52;;;3.78;;
79412;SDS011;68863;49.528;11.010;2023-07-24T04:07:42;11.05;;;4.18;;
79412;SDS011;68863;49.528;11.010;2023-07-24T04:08:42;10.02;;;3.70;;
79412;SDS011;68863;49.528;11.010;2023-07-24T04:09:42;10.80;;;4.90;;
79412;SDS011;68863;49.528;11.010;2023-07-24T04:10:42;11.30;;;4.47;;
79412;SDS011;68863;49.528;11.010;2023-07-24T04:11:43;11.40;;;4.43;;
79412;SDS011;68863;49.528;11.010;2023-07-24T04:12:44;10.32;;;4.03;;
79412;SDS011;68863;49.528;11.010;2023-07-24T04:13:44;10.03;;;4.37;;
79412;SDS011;68863;49.528;11.010;2023-07-24T04:14:44;10.88;;;3.95;;
79412;SDS011;68863;49.528;11.010;2023-07-24T04:15:44;9.77;;;4.13;;
79412;SDS011;68863;49.528;11.010;2023-07-24T04:16:45;10.93;;;4.78;;
79412;SDS011;68863;49.528;11.010;2023-07-24T04:17:46;10.52;;;4.30;;
79412;SDS011;68863;49.528;11.010;2023-07-24T04:18:46;10.18;;;4.45;;
79412;SDS011;68863;49.528;11.010;2023-07-24T04:19:46;9.80;;;5.07;;
79412;SDS011;68863;49.528;11.010;2023-07-24T04:20:46;10.33;;;4.03;;
79412;SDS011;68863;49.528;11.010;2023-07-24T04:21:47;11.60;;;4.47;;
79412;SDS011;68863;49.528;11.010;2023-07-24T04:22:47;10.05;;;4.15;;
79412;SDS011;68863;49.528;11.010;2023-07-24T04:23:47;8.93;;;3.83;;
79412;SDS011;68863;49.528;11.010;2023-07-24T04:24:47;11.02;;;3.85;;
79412;SDS011;68863;49.528;11.010;2023-07-24T04:25:50;8.18;;;3.65;;
79412;SDS011;68863;49.528;11.010;2023-07-24T04:26:51;9.23;;;3.72;;
79412;SDS011;68863;49.528;11.010;2023-07-24T04:27:51;10.40;;;4.30;;
79412;SDS011;68863;49.528;11.010;2023-07-24T04:28:51;10.10;;;4.40;;
79412;SDS011;68863;49.528;11.010;2023-07-24T04:29:51;9.23;;;4.07;;
79412;SDS011;68863;49.528;11.010;2023-07-24T04:30:52;10.55;;;4.50;;
79412;SDS011;68863;49.528;11.010;2023-07-24T04:31:52;11.38;;;4.10;;
79412;SDS011;68863;49.528;11.010;2023-07-24T04:32:52;10.85;;;4.20;;
79412;SDS011;68863;49.528;11.010;2023-07-24T04:33:53;8.85;;;3.72;;
79412;SDS011;68863;49.528;11.010;2023-07-24T04:34:53;9.15;;;3.88;;
79412;SDS011;68863;49.528;11.010;2023-07-24T04:35:54;9.95;;;3.92;;
79412;SDS011;68863;49.528;11.010;2023-07-24T04:36:55;10.45;;;4.25;;
79412;SDS011;68863;49.528;11.010;2023-07-24T04:37:55;10.80;;;3.93;;
79412;SDS011;68863;49.528;11.010;2023-07-24T04:38:57;11.25;;;4.60;;
79412;SDS011;68863;49.528;11.010;2023-07-24T04:39:57;9.20;;;3.58;;
79412;SDS011;68863;49.528;11.010;2023-07-24T04:41:00;8.47;;;3.67;;
79412;SDS011;68863;49.528;11.010;2023-07-24T04:42:01;9.13;;;3.65;;
79412;SDS011;68863;49.528;11.010;2023-07-24T04:43:01;9.13;;;4.22;;
79412;SDS011;68863;49.528;11.010;2023-07-24T04:44:01;8.82;;;4.18;;
79412;SDS011;68863;49.528;11.010;2023-07-24T04:45:02;10.23;;;3.58;;
79412;SDS011;68863;49.528;11.010;2023-07-24T04:46:03;9.68;;;4.00;;
79412;SDS011;68863;49.528;11.010;2023-07-24T04:47:03;10.90;;;4.00;;
79412;SDS011;68863;49.528;11.010;2023-07-24T04:48:04;10.30;;;4.13;;
79412;SDS011;68863;49.528;11.010;2023-07-24T04:49:05;9.18;;;4.15;;
79412;SDS011;68863;49.528;11.010;2023-07-24T04:50:05;10.07;;;4.13;;
79412;SDS011;68863;49.528;11.010;2023-07-24T04:51:06;9.65;;;4.15;;
79412;SDS011;68863;49.528;11.010;2023-07-24T04:52:06;9.88;;;4.13;;
79412;SDS011;68863;49.528;11.010;2023-07-24T04:53:06;9.13;;;4.22;;
79412;SDS011;68863;49.528;11.010;2023-07-24T04:54:09;9.13;;;3.92;;
79412;SDS011;68863;49.528;11.010;2023-07-24T04:55:09;10.43;;;4.05;;
79412;SDS011;68863;49.528;11.010;2023-07-24T04:56:10;9.63;;;3.73;;
79412;SDS011;68863;49.528;11.010;2023-07-24T04:57:10;12.52;;;3.97;;
79412;SDS011;68863;49.528;11.010;2023-07-24T04:58:10;11.13;;;4.60;;
79412;SDS011;68863;49.528;11.010;2023-07-24T04:59:11;11.30;;;4.03;;
79412;SDS011;68863;49.528;11.010;2023-07-24T05:00:11;11.57;;;4.60;;
79412;SDS011;68863;49.528;11.010;2023-07-24T05:01:12;9.20;;;3.95;;
79412;SDS011;68863;49.528;11.010;2023-07-24T05:02:12;11.07;;;4.07;;
79412;SDS011;68863;49.528;11.010;2023-07-24T05:03:12;9.55;;;4.03;;
79412;SDS011;68863;49.528;11.010;2023-07-24T05:04:13;11.17;;;4.00;;
79412;SDS011;68863;49.528;11.010;2023-07-24T05:05:13;10.13;;;4.57;;
79412;SDS011;68863;49.528;11.010;2023-07-24T05:06:13;8.75;;;3.78;;
79412;SDS011;68863;49.528;11.010;2023-07-24T05:07:13;10.43;;;4.17;;
79412;SDS011;68863;49.528;11.010;2023-07-24T05:08:14;10.80;;;4.22;;
79412;SDS011;68863;49.528;11.010;2023-07-24T05:09:14;8.73;;;3.95;;
79412;SDS011;68863;49.528;11.010;2023-07-24T05:10:14;10.90;;;4.03;;
79412;SDS011;68863;49.528;11.010;2023-07-24T05:11:14;12.07;;;4.28;;
79412;SDS011;68863;49.528;11.010;2023-07-24T05:12:15;8.93;;;3.90;;
79412;SDS011;68863;49.528;11.010;2023-07-24T05:13:15;9.97;;;4.13;;
79412;SDS011;68863;49.528;11.010;2023-07-24T05:14:15;11.63;;;4.55;;
79412;SDS011;68863;49.528;11.010;2023-07-24T05:15:15;11.82;;;4.45;;
79412;SDS011;68863;49.528;11.010;2023-07-24T05:16:17;10.70;;;4.70;;
79412;SDS011;68863;49.528;11.010;2023-07-24T05:17:17;11.37;;;4.93;;
79412;SDS011;68863;49.528;11.010;2023-07-24T05:18:17;10.45;;;3.92;;
79412;SDS011;68863;49.528;11.010;2023-07-24T05:19:18;11.20;;;4.03;;
79412;SDS011;68863;49.528;11.010;2023-07-24T05:20:18;11.32;;;4.50;;
79412;SDS011;68863;49.528;11.010;2023-07-24T05:21:18;11.57;;;4.70;;
79412;SDS011;68863;49.528;11.010;2023-07-24T05:22:19;11.85;;;4.60;;
79412;SDS011;68863;49.528;11.010;2023-07-24T05:23:19;12.27;;;4.90;;
79412;SDS011;68863;49.528;11.010;2023-07-24T05:24:19;11.00;;;4.70;;
79412;SDS011;68863;49.528;11.010;2023-07-24T05:25:19;9.37;;;4.63;;
79412;SDS011;68863;49.528;11.010;2023-07-24T05:26:20;11.57;;;4.75;;
79412;SDS011;68863;49.528;11.010;2023-07-24T05:27:22;10.73;;;4.18;;
79412;SDS011;68863;49.528;11.010;2023-07-24T05:28:22;11.00;;;4.20;;
79412;SDS011;68863;49.528;11.010;2023-07-24T05:29:22;13.67;;;5.17;;
79412;SDS011;68863;49.528;11.010;2023-07-24T05:30:22;10.77;;;4.45;;
79412;SDS011;68863;49.528;11.010;2023-07-24T05:31:23;12.02;;;4.30;;
79412;SDS011;68863;49.528;11.010;2023-07-24T05:32:23;14.27;;;5.57;;
79412;SDS011;68863;49.528;11.010;2023-07-24T05:33:24;11.17;;;4.33;;
79412;SDS011;68863;49.528;11.010;2023-07-24T05:34:25;11.77;;;5.10;;
79412;SDS011;68863;49.528;11.010;2023-07-24T05:35:25;13.77;;;5.03;;
79412;SDS011;68863;49.528;11.010;2023-07-24T05:36:25;10.63;;;4.45;;
79412;SDS011;68863;49.528;11.010;2023-07-24T05:37:26;10.77;;;4.70;;
79412;SDS011;68863;49.528;11.010;2023-07-24T05:38:26;10.05;;;4.50;;
79412;SDS011;68863;49.528;11.010;2023-07-24T05:39:27;11.57;;;4.78;;
79412;SDS011;68863;49.528;11.010;2023-07-24T05:40:29;9.82;;;4.93;;
79412;SDS011;68863;49.528;11.010;2023-07-24T05:41:30;11.05;;;4.57;;
79412;SDS011;68863;49.528;11.010;2023-07-24T05:42:30;10.95;;;4.57;;
79412;SDS011;68863;49.528;11.010;2023-07-24T05:43:30;10.95;;;5.05;;
79412;SDS011;68863;49.528;11.010;2023-07-24T05:44:32;11.52;;;5.07;;
79412;SDS011;68863;49.528;11.010;2023-07-24T05:45:33;9.82;;;4.22;;
79412;SDS011;68863;49.528;11.010;2023-07-24T05:46:33;11.95;;;4.47;;
79412;SDS011;68863;49.528;11.010;2023-07-24T05:47:33;9.97;;;3.87;;
79412;SDS011;68863;49.528;11.010;2023-07-24T05:48:34;10.48;;;4.82;;
79412;SDS011;68863;49.528;11.010;2023-07-24T05:49:34;10.37;;;4.90;;
79412;SDS011;68863;49.528;11.010;2023-07-24T05:50:34;9.70;;;4.70;;
79412;SDS011;68863;49.528;11.010;2023-07-24T05:51:34;11.73;;;4.93;;
79412;SDS011;68863;49.528;11.010;2023-07-24T05:52:35;10.60;;;4.53;;
79412;SDS011;68863;49.528;11.010;2023-07-24T05:53:35;11.20;;;4.63;;
79412;SDS011;68863;49.528;11.010;2023-07-24T05:54:35;11.60;;;4.75;;
79412;SDS011;68863;49.528;11.010;2023-07-24T05:55:35;12.32;;;4.90;;
79412;SDS011;68863;49.528;11.010;2023-07-24T05:56:36;10.18;;;4.35;;
79412;SDS011;68863;49.528;11.010;2023-07-24T05:57:36;10.23;;;4.57;;
79412;SDS011;68863;49.528;11.010;2023-07-24T05:58:36;11.15;;;5.28;;
79412;SDS011;68863;49.528;11.010;2023-07-24T05:59:37;10.90;;;4.40;;
79412;SDS011;68863;49.528;11.010;2023-07-24T06:00:37;10.63;;;4.55;;
79412;SDS011;68863;49.528;11.010;2023-07-24T06:01:37;10.47;;;4.00;;
79412;SDS011;68863;49.528;11.010;2023-07-24T06:02:37;9.90;;;4.50;;
79412;SDS011;68863;49.528;11.010;2023-07-24T06:03:38;9.43;;;4.10;;